sensor_id;sensor_type;location;lat;lon;timestamp;P1;durP1;ratioP1;P2;durP2;ratioP2
77598;SDS011;66758;52.078;5.070;2023-03-20T00:01:19;14.02;;;6.82;;
77598;SDS011;66758;52.078;5.070;2023-03-20T00:03:48;15.73;;;6.80;;
77598;SDS011;66758;52.078;5.070;2023-03-20T00:06:19;15.57;;;7.40;;
77598;SDS011;66758;52.078;5.070;2023-03-20T00:08:48;19.38;;;8.00;;
77598;SDS011;66758;52.078;5.070;2023-03-20T00:14:06;20.83;;;8.90;;
77598;SDS011;66758;52.078;5.070;2023-03-20T00:16:37;18.77;;;8.38;;
77598;SDS011;66758;52.078;5.070;2023-03-20T00:19:09;16.73;;;8.07;;
77598;SDS011;66758;52.078;5.070;2023-03-20T00:21:39;16.10;;;7.32;;
77598;SDS011;66758;52.078;5.070;2023-03-20T00:24:05;19.27;;;7.32;;
77598;SDS011;66758;52.078;5.070;2023-03-20T00:26:32;12.93;;;7.37;;
77598;SDS011;66758;52.078;5.070;2023-03-20T00:29:00;17.70;;;7.32;;
77598;SDS011;66758;52.078;5.070;2023-03-20T00:31:29;14.18;;;6.57;;
77598;SDS011;66758;52.078;5.070;2023-03-20T00:34:00;17.33;;;6.50;;
77598;SDS011;66758;52.078;5.070;2023-03-20T00:36:27;15.70;;;5.75;;
77598;SDS011;66758;52.078;5.070;2023-03-20T00:38:54;14.20;;;5.20;;
77598;SDS011;66758;52.078;5.070;2023-03-20T00:41:25;9.63;;;4.75;;
77598;SDS011;66758;52.078;5.070;2023-03-20T00:46:58;12.77;;;4.82;;
77598;SDS011;66758;52.078;5.070;2023-03-20T00:49:29;10.37;;;4.43;;
77598;SDS011;66758;52.078;5.070;2023-03-20T00:51:57;10.20;;;4.25;;
77598;SDS011;66758;52.078;5.070;2023-03-20T00:54:24;10.30;;;3.95;;
77598;SDS011;66758;52.078;5.070;2023-03-20T00:56:55;10.02;;;4.25;;
77598;SDS011;66758;52.078;5.070;2023-03-20T00:59:25;11.65;;;4.07;;
77598;SDS011;66758;52.078;5.070;2023-03-20T01:01:58;11.03;;;4.03;;
77598;SDS011;66758;52.078;5.070;2023-03-20T01:04:27;15.52;;;4.70;;
77598;SDS011;66758;52.078;5.070;2023-03-20T01:06:59;12.55;;;4.45;;
77598;SDS011;66758;52.078;5.070;2023-03-20T01:09:26;11.35;;;4.78;;
77598;SDS011;66758;52.078;5.070;2023-03-20T01:11:52;11.77;;;4.40;;
77598;SDS011;66758;52.078;5.070;2023-03-20T01:14:18;10.68;;;4.50;;
77598;SDS011;66758;52.078;5.070;2023-03-20T01:16:44;14.60;;;5.70;;
77598;SDS011;66758;52.078;5.070;2023-03-20T01:19:13;10.93;;;4.55;;
77598;SDS011;66758;52.078;5.070;2023-03-20T01:21:40;11.70;;;4.80;;
77598;SDS011;66758;52.078;5.070;2023-03-20T01:24:06;13.40;;;5.78;;
77598;SDS011;66758;52.078;5.070;2023-03-20T01:26:36;14.25;;;5.68;;
77598;SDS011;66758;52.078;5.070;2023-03-20T01:29:05;13.00;;;5.20;;
77598;SDS011;66758;52.078;5.070;2023-03-20T01:31:43;13.30;;;4.82;;
77598;SDS011;66758;52.078;5.070;2023-03-20T01:34:09;11.63;;;4.70;;
77598;SDS011;66758;52.078;5.070;2023-03-20T01:36:35;11.40;;;4.75;;
77598;SDS011;66758;52.078;5.070;2023-03-20T01:39:02;19.60;;;5.97;;
77598;SDS011;66758;52.078;5.070;2023-03-20T01:41:29;13.67;;;5.33;;
77598;SDS011;66758;52.078;5.070;2023-03-20T01:43:59;14.77;;;5.43;;
77598;SDS011;66758;52.078;5.070;2023-03-20T01:46:30;12.25;;;5.70;;
77598;SDS011;66758;52.078;5.070;2023-03-20T01:51:55;14.63;;;5.35;;
77598;SDS011;66758;52.078;5.070;2023-03-20T02:00:02;14.13;;;6.07;;
77598;SDS011;66758;52.078;5.070;2023-03-20T02:02:31;15.10;;;5.28;;
77598;SDS011;66758;52.078;5.070;2023-03-20T02:04:59;15.80;;;5.47;;
77598;SDS011;66758;52.078;5.070;2023-03-20T02:07:28;12.50;;;5.53;;
77598;SDS011;66758;52.078;5.070;2023-03-20T02:09:56;13.65;;;6.05;;
77598;SDS011;66758;52.078;5.070;2023-03-20T02:12:23;16.52;;;6.43;;
77598;SDS011;66758;52.078;5.070;2023-03-20T02:14:55;13.85;;;6.22;;
77598;SDS011;66758;52.078;5.070;2023-03-20T02:17:22;16.83;;;6.73;;
77598;SDS011;66758;52.078;5.070;2023-03-20T02:39:49;21.30;;;9.77;;
77598;SDS011;66758;52.078;5.070;2023-03-20T02:42:28;24.42;;;9.07;;
77598;SDS011;66758;52.078;5.070;2023-03-20T02:45:13;24.73;;;9.10;;
77598;SDS011;66758;52.078;5.070;2023-03-20T02:51:19;25.83;;;10.38;;
77598;SDS011;66758;52.078;5.070;2023-03-20T02:57:15;26.77;;;10.55;;
77598;SDS011;66758;52.078;5.070;2023-03-20T03:00:02;25.73;;;10.10;;
77598;SDS011;66758;52.078;5.070;2023-03-20T03:02:38;25.13;;;10.52;;
77598;SDS011;66758;52.078;5.070;2023-03-20T03:05:11;25.48;;;11.30;;
77598;SDS011;66758;52.078;5.070;2023-03-20T03:07:52;25.33;;;10.77;;
77598;SDS011;66758;52.078;5.070;2023-03-20T03:10:23;29.67;;;11.23;;
77598;SDS011;66758;52.078;5.070;2023-03-20T03:13:01;26.20;;;10.93;;
77598;SDS011;66758;52.078;5.070;2023-03-20T03:15:30;25.23;;;11.35;;
77598;SDS011;66758;52.078;5.070;2023-03-20T03:18:00;31.08;;;10.88;;
77598;SDS011;66758;52.078;5.070;2023-03-20T03:20:31;25.50;;;10.38;;
77598;SDS011;66758;52.078;5.070;2023-03-20T03:23:05;25.35;;;11.10;;
77598;SDS011;66758;52.078;5.070;2023-03-20T03:25:32;25.80;;;11.23;;
77598;SDS011;66758;52.078;5.070;2023-03-20T03:31:06;25.83;;;9.85;;
77598;SDS011;66758;52.078;5.070;2023-03-20T03:33:34;25.02;;;10.63;;
77598;SDS011;66758;52.078;5.070;2023-03-20T03:36:21;29.50;;;11.50;;
77598;SDS011;66758;52.078;5.070;2023-03-20T03:38:58;30.90;;;11.70;;
77598;SDS011;66758;52.078;5.070;2023-03-20T03:41:33;29.75;;;12.70;;
77598;SDS011;66758;52.078;5.070;2023-03-20T03:44:25;27.15;;;11.77;;
77598;SDS011;66758;52.078;5.070;2023-03-20T03:47:12;26.92;;;10.98;;
77598;SDS011;66758;52.078;5.070;2023-03-20T03:49:45;25.92;;;9.93;;
77598;SDS011;66758;52.078;5.070;2023-03-20T03:52:18;25.53;;;10.77;;
77598;SDS011;66758;52.078;5.070;2023-03-20T03:54:48;31.38;;;11.40;;
77598;SDS011;66758;52.078;5.070;2023-03-20T03:57:20;26.98;;;10.45;;
77598;SDS011;66758;52.078;5.070;2023-03-20T03:59:58;24.10;;;10.15;;
77598;SDS011;66758;52.078;5.070;2023-03-20T04:02:29;23.50;;;9.90;;
77598;SDS011;66758;52.078;5.070;2023-03-20T04:04:55;26.50;;;10.23;;
77598;SDS011;66758;52.078;5.070;2023-03-20T04:07:24;25.38;;;10.20;;
77598;SDS011;66758;52.078;5.070;2023-03-20T04:09:51;21.42;;;9.95;;
77598;SDS011;66758;52.078;5.070;2023-03-20T04:12:26;21.95;;;9.38;;
77598;SDS011;66758;52.078;5.070;2023-03-20T04:15:00;26.33;;;10.50;;
77598;SDS011;66758;52.078;5.070;2023-03-20T04:17:27;26.00;;;9.57;;
77598;SDS011;66758;52.078;5.070;2023-03-20T04:19:53;20.63;;;9.68;;
77598;SDS011;66758;52.078;5.070;2023-03-20T04:22:18;21.17;;;9.73;;
77598;SDS011;66758;52.078;5.070;2023-03-20T04:24:44;23.00;;;9.80;;
77598;SDS011;66758;52.078;5.070;2023-03-20T04:27:10;24.73;;;10.05;;
77598;SDS011;66758;52.078;5.070;2023-03-20T04:29:37;24.13;;;10.30;;
77598;SDS011;66758;52.078;5.070;2023-03-20T04:32:02;21.17;;;10.45;;
77598;SDS011;66758;52.078;5.070;2023-03-20T04:34:28;24.80;;;10.67;;
77598;SDS011;66758;52.078;5.070;2023-03-20T04:36:54;27.02;;;12.07;;
77598;SDS011;66758;52.078;5.070;2023-03-20T04:39:19;24.03;;;11.23;;
77598;SDS011;66758;52.078;5.070;2023-03-20T04:41:45;27.88;;;11.07;;
77598;SDS011;66758;52.078;5.070;2023-03-20T04:44:12;24.77;;;13.05;;
77598;SDS011;66758;52.078;5.070;2023-03-20T04:46:38;22.13;;;11.40;;
77598;SDS011;66758;52.078;5.070;2023-03-20T04:49:04;27.45;;;11.30;;
77598;SDS011;66758;52.078;5.070;2023-03-20T04:51:30;22.73;;;12.15;;
77598;SDS011;66758;52.078;5.070;2023-03-20T04:53:56;21.90;;;11.60;;
77598;SDS011;66758;52.078;5.070;2023-03-20T04:56:22;24.33;;;12.27;;
77598;SDS011;66758;52.078;5.070;2023-03-20T04:58:48;22.13;;;12.43;;
77598;SDS011;66758;52.078;5.070;2023-03-20T05:01:13;24.20;;;13.23;;
77598;SDS011;66758;52.078;5.070;2023-03-20T05:03:39;22.20;;;12.63;;
77598;SDS011;66758;52.078;5.070;2023-03-20T05:06:07;30.67;;;12.90;;
77598;SDS011;66758;52.078;5.070;2023-03-20T05:08:33;22.05;;;11.75;;
77598;SDS011;66758;52.078;5.070;2023-03-20T05:10:59;25.60;;;12.67;;
77598;SDS011;66758;52.078;5.070;2023-03-20T05:13:26;23.52;;;13.00;;
77598;SDS011;66758;52.078;5.070;2023-03-20T05:15:51;24.52;;;11.98;;
77598;SDS011;66758;52.078;5.070;2023-03-20T05:18:18;28.03;;;13.13;;
77598;SDS011;66758;52.078;5.070;2023-03-20T05:20:44;25.23;;;12.63;;
77598;SDS011;66758;52.078;5.070;2023-03-20T05:23:10;28.13;;;13.23;;
77598;SDS011;66758;52.078;5.070;2023-03-20T05:25:36;23.47;;;12.47;;
77598;SDS011;66758;52.078;5.070;2023-03-20T05:28:01;21.08;;;12.65;;
77598;SDS011;66758;52.078;5.070;2023-03-20T05:30:28;21.83;;;13.40;;
77598;SDS011;66758;52.078;5.070;2023-03-20T05:32:54;24.27;;;13.40;;
77598;SDS011;66758;52.078;5.070;2023-03-20T05:35:20;29.15;;;14.30;;
77598;SDS011;66758;52.078;5.070;2023-03-20T05:37:46;25.73;;;12.80;;
77598;SDS011;66758;52.078;5.070;2023-03-20T05:40:12;21.73;;;12.85;;
77598;SDS011;66758;52.078;5.070;2023-03-20T05:42:40;21.67;;;12.50;;
77598;SDS011;66758;52.078;5.070;2023-03-20T05:45:06;25.10;;;12.87;;
77598;SDS011;66758;52.078;5.070;2023-03-20T05:47:32;26.55;;;13.07;;
77598;SDS011;66758;52.078;5.070;2023-03-20T05:49:59;21.53;;;12.77;;
77598;SDS011;66758;52.078;5.070;2023-03-20T05:52:26;25.52;;;13.30;;
77598;SDS011;66758;52.078;5.070;2023-03-20T05:54:51;24.02;;;12.18;;
77598;SDS011;66758;52.078;5.070;2023-03-20T05:57:18;25.08;;;12.85;;
77598;SDS011;66758;52.078;5.070;2023-03-20T05:59:47;28.30;;;13.33;;
77598;SDS011;66758;52.078;5.070;2023-03-20T06:02:12;24.05;;;12.90;;
77598;SDS011;66758;52.078;5.070;2023-03-20T06:04:38;24.25;;;12.43;;
77598;SDS011;66758;52.078;5.070;2023-03-20T06:07:04;23.27;;;12.73;;
77598;SDS011;66758;52.078;5.070;2023-03-20T06:09:30;29.33;;;13.43;;
77598;SDS011;66758;52.078;5.070;2023-03-20T06:11:56;21.60;;;12.98;;
77598;SDS011;66758;52.078;5.070;2023-03-20T06:14:23;24.70;;;12.02;;
77598;SDS011;66758;52.078;5.070;2023-03-20T06:16:49;24.67;;;12.70;;
77598;SDS011;66758;52.078;5.070;2023-03-20T06:19:15;23.43;;;11.77;;
77598;SDS011;66758;52.078;5.070;2023-03-20T06:21:41;24.70;;;11.85;;
77598;SDS011;66758;52.078;5.070;2023-03-20T06:24:06;22.23;;;12.23;;
77598;SDS011;66758;52.078;5.070;2023-03-20T06:26:34;27.02;;;12.85;;
77598;SDS011;66758;52.078;5.070;2023-03-20T06:29:00;23.80;;;12.35;;
77598;SDS011;66758;52.078;5.070;2023-03-20T06:31:26;21.13;;;11.30;;
77598;SDS011;66758;52.078;5.070;2023-03-20T06:33:52;24.17;;;12.13;;
77598;SDS011;66758;52.078;5.070;2023-03-20T06:36:18;24.13;;;11.90;;
77598;SDS011;66758;52.078;5.070;2023-03-20T06:38:43;18.50;;;11.07;;
77598;SDS011;66758;52.078;5.070;2023-03-20T06:41:10;21.57;;;11.37;;
77598;SDS011;66758;52.078;5.070;2023-03-20T06:43:36;21.58;;;11.43;;
77598;SDS011;66758;52.078;5.070;2023-03-20T06:46:01;21.30;;;11.95;;
77598;SDS011;66758;52.078;5.070;2023-03-20T06:48:27;23.27;;;12.13;;
77598;SDS011;66758;52.078;5.070;2023-03-20T06:50:53;22.80;;;11.52;;
77598;SDS011;66758;52.078;5.070;2023-03-20T06:53:20;24.27;;;12.30;;
77598;SDS011;66758;52.078;5.070;2023-03-20T06:55:46;23.10;;;12.67;;
77598;SDS011;66758;52.078;5.070;2023-03-20T06:58:13;22.17;;;11.57;;
77598;SDS011;66758;52.078;5.070;2023-03-20T07:00:38;25.13;;;12.03;;
77598;SDS011;66758;52.078;5.070;2023-03-20T07:03:04;25.08;;;12.15;;
77598;SDS011;66758;52.078;5.070;2023-03-20T07:05:30;23.17;;;11.60;;
77598;SDS011;66758;52.078;5.070;2023-03-20T07:08:03;18.45;;;9.88;;
77598;SDS011;66758;52.078;5.070;2023-03-20T07:10:28;20.02;;;9.43;;
77598;SDS011;66758;52.078;5.070;2023-03-20T07:12:54;24.63;;;11.10;;
77598;SDS011;66758;52.078;5.070;2023-03-20T07:15:21;23.00;;;10.88;;
77598;SDS011;66758;52.078;5.070;2023-03-20T07:17:52;19.75;;;10.27;;
77598;SDS011;66758;52.078;5.070;2023-03-20T07:20:18;24.10;;;12.00;;
77598;SDS011;66758;52.078;5.070;2023-03-20T07:22:43;18.20;;;9.45;;
77598;SDS011;66758;52.078;5.070;2023-03-20T07:25:09;18.77;;;10.07;;
77598;SDS011;66758;52.078;5.070;2023-03-20T07:27:38;24.63;;;9.73;;
77598;SDS011;66758;52.078;5.070;2023-03-20T07:30:04;20.67;;;9.95;;
77598;SDS011;66758;52.078;5.070;2023-03-20T07:32:31;19.33;;;9.60;;
77598;SDS011;66758;52.078;5.070;2023-03-20T07:34:57;19.27;;;9.50;;
77598;SDS011;66758;52.078;5.070;2023-03-20T07:37:23;18.20;;;9.45;;
77598;SDS011;66758;52.078;5.070;2023-03-20T07:39:49;19.23;;;9.00;;
77598;SDS011;66758;52.078;5.070;2023-03-20T07:42:14;25.00;;;10.55;;
77598;SDS011;66758;52.078;5.070;2023-03-20T07:44:41;16.03;;;8.70;;
77598;SDS011;66758;52.078;5.070;2023-03-20T07:47:08;16.92;;;8.35;;
77598;SDS011;66758;52.078;5.070;2023-03-20T07:49:33;34.90;;;16.17;;
77598;SDS011;66758;52.078;5.070;2023-03-20T07:52:01;19.37;;;8.60;;
77598;SDS011;66758;52.078;5.070;2023-03-20T07:54:26;19.80;;;7.82;;
77598;SDS011;66758;52.078;5.070;2023-03-20T07:56:53;17.00;;;7.88;;
77598;SDS011;66758;52.078;5.070;2023-03-20T07:59:19;13.83;;;6.40;;
77598;SDS011;66758;52.078;5.070;2023-03-20T08:01:44;17.42;;;7.80;;
77598;SDS011;66758;52.078;5.070;2023-03-20T08:04:10;17.67;;;7.30;;
77598;SDS011;66758;52.078;5.070;2023-03-20T08:06:36;15.57;;;7.45;;
77598;SDS011;66758;52.078;5.070;2023-03-20T08:09:05;16.05;;;7.15;;
77598;SDS011;66758;52.078;5.070;2023-03-20T08:11:31;17.17;;;7.18;;
77598;SDS011;66758;52.078;5.070;2023-03-20T08:13:57;13.47;;;7.27;;
77598;SDS011;66758;52.078;5.070;2023-03-20T08:16:23;18.77;;;8.05;;
77598;SDS011;66758;52.078;5.070;2023-03-20T08:18:49;16.90;;;7.32;;
77598;SDS011;66758;52.078;5.070;2023-03-20T08:21:16;17.27;;;7.60;;
77598;SDS011;66758;52.078;5.070;2023-03-20T08:23:43;13.75;;;7.07;;
77598;SDS011;66758;52.078;5.070;2023-03-20T08:26:09;21.77;;;7.57;;
77598;SDS011;66758;52.078;5.070;2023-03-20T08:28:34;14.27;;;7.13;;
77598;SDS011;66758;52.078;5.070;2023-03-20T08:31:00;19.00;;;7.93;;
77598;SDS011;66758;52.078;5.070;2023-03-20T08:33:28;16.55;;;7.90;;
77598;SDS011;66758;52.078;5.070;2023-03-20T08:35:54;16.70;;;8.43;;
77598;SDS011;66758;52.078;5.070;2023-03-20T08:38:22;17.80;;;8.13;;
77598;SDS011;66758;52.078;5.070;2023-03-20T08:40:48;17.63;;;7.70;;
77598;SDS011;66758;52.078;5.070;2023-03-20T08:43:15;14.37;;;7.57;;
77598;SDS011;66758;52.078;5.070;2023-03-20T08:45:40;17.05;;;7.38;;
77598;SDS011;66758;52.078;5.070;2023-03-20T08:48:06;20.47;;;8.30;;
77598;SDS011;66758;52.078;5.070;2023-03-20T08:50:32;17.50;;;7.60;;
77598;SDS011;66758;52.078;5.070;2023-03-20T08:52:58;21.30;;;7.53;;
77598;SDS011;66758;52.078;5.070;2023-03-20T08:55:23;16.65;;;8.23;;
77598;SDS011;66758;52.078;5.070;2023-03-20T08:57:58;18.50;;;8.73;;
77598;SDS011;66758;52.078;5.070;2023-03-20T09:00:32;17.90;;;8.32;;
77598;SDS011;66758;52.078;5.070;2023-03-20T09:02:57;20.60;;;8.60;;
77598;SDS011;66758;52.078;5.070;2023-03-20T09:05:24;15.82;;;8.95;;
77598;SDS011;66758;52.078;5.070;2023-03-20T09:07:51;15.95;;;7.97;;
77598;SDS011;66758;52.078;5.070;2023-03-20T09:10:18;15.77;;;8.70;;
77598;SDS011;66758;52.078;5.070;2023-03-20T09:12:44;14.73;;;6.47;;
77598;SDS011;66758;52.078;5.070;2023-03-20T09:15:11;18.48;;;8.70;;
77598;SDS011;66758;52.078;5.070;2023-03-20T09:17:37;15.57;;;7.30;;
77598;SDS011;66758;52.078;5.070;2023-03-20T09:20:03;21.10;;;8.40;;
77598;SDS011;66758;52.078;5.070;2023-03-20T09:22:30;16.33;;;8.00;;
77598;SDS011;66758;52.078;5.070;2023-03-20T09:24:56;19.15;;;7.45;;
77598;SDS011;66758;52.078;5.070;2023-03-20T09:27:24;14.80;;;7.05;;
77598;SDS011;66758;52.078;5.070;2023-03-20T09:29:50;18.97;;;7.57;;
77598;SDS011;66758;52.078;5.070;2023-03-20T09:32:16;19.38;;;7.13;;
77598;SDS011;66758;52.078;5.070;2023-03-20T09:34:43;13.93;;;6.13;;
77598;SDS011;66758;52.078;5.070;2023-03-20T09:37:09;12.25;;;6.53;;
77598;SDS011;66758;52.078;5.070;2023-03-20T09:39:34;15.63;;;6.23;;
77598;SDS011;66758;52.078;5.070;2023-03-20T09:50:35;12.17;;;5.70;;
77598;SDS011;66758;52.078;5.070;2023-03-20T09:53:11;14.00;;;6.03;;
77598;SDS011;66758;52.078;5.070;2023-03-20T09:55:45;14.05;;;7.25;;
77598;SDS011;66758;52.078;5.070;2023-03-20T09:58:12;12.73;;;6.53;;
77598;SDS011;66758;52.078;5.070;2023-03-20T10:00:44;18.70;;;6.97;;
77598;SDS011;66758;52.078;5.070;2023-03-20T10:03:14;15.93;;;6.67;;
77598;SDS011;66758;52.078;5.070;2023-03-20T10:06:05;16.10;;;6.63;;
77598;SDS011;66758;52.078;5.070;2023-03-20T10:08:37;19.38;;;7.43;;
77598;SDS011;66758;52.078;5.070;2023-03-20T10:17:30;14.60;;;5.80;;
77598;SDS011;66758;52.078;5.070;2023-03-20T10:20:23;17.48;;;7.10;;
77598;SDS011;66758;52.078;5.070;2023-03-20T10:22:52;14.23;;;6.90;;
77598;SDS011;66758;52.078;5.070;2023-03-20T10:27:58;18.15;;;7.38;;
77598;SDS011;66758;52.078;5.070;2023-03-20T10:30:48;15.37;;;6.43;;
77598;SDS011;66758;52.078;5.070;2023-03-20T10:36:32;17.77;;;7.07;;
77598;SDS011;66758;52.078;5.070;2023-03-20T10:39:18;13.07;;;6.75;;
77598;SDS011;66758;52.078;5.070;2023-03-20T10:42:12;17.60;;;8.10;;
77598;SDS011;66758;52.078;5.070;2023-03-20T10:44:54;18.33;;;10.10;;
77598;SDS011;66758;52.078;5.070;2023-03-20T10:47:31;18.02;;;9.45;;
77598;SDS011;66758;52.078;5.070;2023-03-20T10:50:02;17.20;;;8.88;;
77598;SDS011;66758;52.078;5.070;2023-03-20T10:52:32;20.55;;;10.10;;
77598;SDS011;66758;52.078;5.070;2023-03-20T10:55:06;19.40;;;10.75;;
77598;SDS011;66758;52.078;5.070;2023-03-20T10:57:41;21.33;;;11.80;;
77598;SDS011;66758;52.078;5.070;2023-03-20T11:00:17;25.50;;;11.00;;
77598;SDS011;66758;52.078;5.070;2023-03-20T11:02:45;23.45;;;11.15;;
77598;SDS011;66758;52.078;5.070;2023-03-20T11:05:44;23.02;;;11.93;;
77598;SDS011;66758;52.078;5.070;2023-03-20T11:08:07;27.38;;;14.88;;
77598;SDS011;66758;52.078;5.070;2023-03-20T11:10:38;23.53;;;12.13;;
77598;SDS011;66758;52.078;5.070;2023-03-20T11:13:12;27.70;;;13.27;;
77598;SDS011;66758;52.078;5.070;2023-03-20T11:16:20;25.05;;;13.18;;
77598;SDS011;66758;52.078;5.070;2023-03-20T11:18:48;26.70;;;12.70;;
77598;SDS011;66758;52.078;5.070;2023-03-20T11:21:21;22.73;;;14.23;;
77598;SDS011;66758;52.078;5.070;2023-03-20T11:23:49;23.87;;;12.73;;
77598;SDS011;66758;52.078;5.070;2023-03-20T11:26:16;28.42;;;13.00;;
77598;SDS011;66758;52.078;5.070;2023-03-20T11:29:09;25.38;;;11.90;;
77598;SDS011;66758;52.078;5.070;2023-03-20T11:32:02;27.98;;;14.63;;
77598;SDS011;66758;52.078;5.070;2023-03-20T11:34:48;24.67;;;11.32;;
77598;SDS011;66758;52.078;5.070;2023-03-20T11:37:32;24.37;;;12.87;;
77598;SDS011;66758;52.078;5.070;2023-03-20T11:40:01;24.90;;;12.15;;
77598;SDS011;66758;52.078;5.070;2023-03-20T11:42:38;26.17;;;12.20;;
77598;SDS011;66758;52.078;5.070;2023-03-20T11:45:05;24.23;;;12.35;;
77598;SDS011;66758;52.078;5.070;2023-03-20T11:47:40;32.70;;;15.55;;
77598;SDS011;66758;52.078;5.070;2023-03-20T11:50:24;28.33;;;14.93;;
77598;SDS011;66758;52.078;5.070;2023-03-20T11:52:51;27.52;;;15.68;;
77598;SDS011;66758;52.078;5.070;2023-03-20T11:55:23;36.15;;;16.00;;
77598;SDS011;66758;52.078;5.070;2023-03-20T11:57:56;29.83;;;14.60;;
77598;SDS011;66758;52.078;5.070;2023-03-20T12:00:25;27.67;;;14.68;;
77598;SDS011;66758;52.078;5.070;2023-03-20T12:03:05;31.47;;;14.00;;
77598;SDS011;66758;52.078;5.070;2023-03-20T12:05:58;29.80;;;13.60;;
77598;SDS011;66758;52.078;5.070;2023-03-20T12:08:27;22.23;;;12.68;;
77598;SDS011;66758;52.078;5.070;2023-03-20T12:10:59;26.00;;;13.77;;
77598;SDS011;66758;52.078;5.070;2023-03-20T12:13:33;30.42;;;14.20;;
77598;SDS011;66758;52.078;5.070;2023-03-20T12:16:03;28.77;;;13.83;;
77598;SDS011;66758;52.078;5.070;2023-03-20T12:18:34;26.55;;;14.43;;
77598;SDS011;66758;52.078;5.070;2023-03-20T12:21:14;27.45;;;14.38;;
77598;SDS011;66758;52.078;5.070;2023-03-20T12:29:30;28.67;;;14.63;;
77598;SDS011;66758;52.078;5.070;2023-03-20T12:32:35;27.52;;;14.20;;
77598;SDS011;66758;52.078;5.070;2023-03-20T12:35:15;26.73;;;13.45;;
77598;SDS011;66758;52.078;5.070;2023-03-20T12:37:44;25.63;;;13.57;;
77598;SDS011;66758;52.078;5.070;2023-03-20T12:40:12;27.67;;;13.82;;
77598;SDS011;66758;52.078;5.070;2023-03-20T13:03:27;27.98;;;14.85;;
77598;SDS011;66758;52.078;5.070;2023-03-20T13:12:20;23.40;;;12.82;;
77598;SDS011;66758;52.078;5.070;2023-03-20T13:15:02;26.65;;;12.95;;
77598;SDS011;66758;52.078;5.070;2023-03-20T13:17:36;26.55;;;14.20;;
77598;SDS011;66758;52.078;5.070;2023-03-20T13:20:21;27.83;;;14.32;;
77598;SDS011;66758;52.078;5.070;2023-03-20T13:26:01;27.55;;;15.15;;
77598;SDS011;66758;52.078;5.070;2023-03-20T13:37:22;36.90;;;16.13;;
77598;SDS011;66758;52.078;5.070;2023-03-20T13:45:42;32.45;;;15.20;;
77598;SDS011;66758;52.078;5.070;2023-03-20T13:50:48;35.13;;;15.43;;
77598;SDS011;66758;52.078;5.070;2023-03-20T13:53:43;30.23;;;15.40;;
77598;SDS011;66758;52.078;5.070;2023-03-20T14:07:41;24.20;;;13.43;;
77598;SDS011;66758;52.078;5.070;2023-03-20T14:12:52;24.15;;;13.75;;
77598;SDS011;66758;52.078;5.070;2023-03-20T14:15:30;28.08;;;14.40;;
77598;SDS011;66758;52.078;5.070;2023-03-20T14:17:57;59.30;;;30.40;;
77598;SDS011;66758;52.078;5.070;2023-03-20T14:20:31;28.70;;;15.25;;
77598;SDS011;66758;52.078;5.070;2023-03-20T14:23:05;26.40;;;15.32;;
77598;SDS011;66758;52.078;5.070;2023-03-20T14:25:33;26.48;;;14.05;;
77598;SDS011;66758;52.078;5.070;2023-03-20T14:30:39;28.83;;;14.10;;
77598;SDS011;66758;52.078;5.070;2023-03-20T14:35:51;27.83;;;14.98;;
77598;SDS011;66758;52.078;5.070;2023-03-20T14:38:46;30.42;;;12.80;;
77598;SDS011;66758;52.078;5.070;2023-03-20T14:41:23;27.77;;;15.27;;
77598;SDS011;66758;52.078;5.070;2023-03-20T14:47:16;24.10;;;13.85;;
77598;SDS011;66758;52.078;5.070;2023-03-20T14:50:04;24.25;;;14.32;;
77598;SDS011;66758;52.078;5.070;2023-03-20T14:57:46;29.13;;;16.17;;
77598;SDS011;66758;52.078;5.070;2023-03-20T15:02:52;27.90;;;16.05;;
77598;SDS011;66758;52.078;5.070;2023-03-20T15:05:27;25.80;;;14.40;;
77598;SDS011;66758;52.078;5.070;2023-03-20T15:07:56;25.60;;;14.32;;
77598;SDS011;66758;52.078;5.070;2023-03-20T15:10:27;32.27;;;17.73;;
77598;SDS011;66758;52.078;5.070;2023-03-20T15:12:59;29.73;;;16.35;;
77598;SDS011;66758;52.078;5.070;2023-03-20T15:15:29;29.48;;;15.88;;
77598;SDS011;66758;52.078;5.070;2023-03-20T15:18:01;27.35;;;15.77;;
77598;SDS011;66758;52.078;5.070;2023-03-20T15:20:37;35.37;;;18.23;;
77598;SDS011;66758;52.078;5.070;2023-03-20T15:23:08;32.40;;;17.35;;
77598;SDS011;66758;52.078;5.070;2023-03-20T15:25:38;35.47;;;18.08;;
77598;SDS011;66758;52.078;5.070;2023-03-20T15:28:12;35.40;;;16.93;;
77598;SDS011;66758;52.078;5.070;2023-03-20T15:30:44;31.55;;;17.88;;
77598;SDS011;66758;52.078;5.070;2023-03-20T15:33:44;34.65;;;16.88;;
77598;SDS011;66758;52.078;5.070;2023-03-20T15:36:08;32.72;;;16.42;;
77598;SDS011;66758;52.078;5.070;2023-03-20T15:38:35;31.92;;;16.67;;
77598;SDS011;66758;52.078;5.070;2023-03-20T15:41:04;37.53;;;19.43;;
77598;SDS011;66758;52.078;5.070;2023-03-20T15:43:31;36.70;;;19.40;;
77598;SDS011;66758;52.078;5.070;2023-03-20T15:45:59;38.70;;;18.75;;
77598;SDS011;66758;52.078;5.070;2023-03-20T15:48:25;41.53;;;19.38;;
77598;SDS011;66758;52.078;5.070;2023-03-20T15:50:55;34.93;;;18.23;;
77598;SDS011;66758;52.078;5.070;2023-03-20T15:53:31;38.55;;;18.10;;
77598;SDS011;66758;52.078;5.070;2023-03-20T15:58:44;39.15;;;20.38;;
77598;SDS011;66758;52.078;5.070;2023-03-20T16:01:15;40.03;;;19.48;;
77598;SDS011;66758;52.078;5.070;2023-03-20T16:03:42;31.70;;;17.02;;
77598;SDS011;66758;52.078;5.070;2023-03-20T16:06:08;38.78;;;19.70;;
77598;SDS011;66758;52.078;5.070;2023-03-20T16:08:38;34.13;;;19.27;;
77598;SDS011;66758;52.078;5.070;2023-03-20T16:11:05;36.80;;;18.55;;
77598;SDS011;66758;52.078;5.070;2023-03-20T16:13:37;35.63;;;19.60;;
77598;SDS011;66758;52.078;5.070;2023-03-20T16:19:22;32.95;;;17.70;;
77598;SDS011;66758;52.078;5.070;2023-03-20T16:22:11;32.67;;;18.42;;
77598;SDS011;66758;52.078;5.070;2023-03-20T16:25:01;31.05;;;16.92;;
77598;SDS011;66758;52.078;5.070;2023-03-20T16:27:27;39.67;;;18.17;;
77598;SDS011;66758;52.078;5.070;2023-03-20T16:29:56;40.37;;;19.50;;
77598;SDS011;66758;52.078;5.070;2023-03-20T16:32:31;40.15;;;20.27;;
77598;SDS011;66758;52.078;5.070;2023-03-20T16:35:03;41.78;;;19.33;;
77598;SDS011;66758;52.078;5.070;2023-03-20T16:37:37;35.28;;;17.67;;
77598;SDS011;66758;52.078;5.070;2023-03-20T16:43:35;44.50;;;18.70;;
77598;SDS011;66758;52.078;5.070;2023-03-20T16:46:04;41.22;;;18.33;;
77598;SDS011;66758;52.078;5.070;2023-03-20T16:48:31;34.83;;;16.20;;
77598;SDS011;66758;52.078;5.070;2023-03-20T16:51:06;35.28;;;16.77;;
77598;SDS011;66758;52.078;5.070;2023-03-20T16:53:44;31.15;;;16.13;;
77598;SDS011;66758;52.078;5.070;2023-03-20T16:56:22;34.57;;;16.53;;
77598;SDS011;66758;52.078;5.070;2023-03-20T16:58:50;38.88;;;16.65;;
77598;SDS011;66758;52.078;5.070;2023-03-20T17:01:20;36.58;;;16.90;;
77598;SDS011;66758;52.078;5.070;2023-03-20T17:03:55;37.50;;;17.63;;
77598;SDS011;66758;52.078;5.070;2023-03-20T17:11:47;32.38;;;15.05;;
77598;SDS011;66758;52.078;5.070;2023-03-20T17:14:41;39.75;;;16.92;;
77598;SDS011;66758;52.078;5.070;2023-03-20T17:17:13;37.13;;;17.35;;
77598;SDS011;66758;52.078;5.070;2023-03-20T17:19:42;38.33;;;16.98;;
77598;SDS011;66758;52.078;5.070;2023-03-20T17:22:17;35.03;;;16.67;;
77598;SDS011;66758;52.078;5.070;2023-03-20T17:24:46;38.53;;;16.63;;
77598;SDS011;66758;52.078;5.070;2023-03-20T17:27:12;36.22;;;16.52;;
77598;SDS011;66758;52.078;5.070;2023-03-20T17:29:39;33.30;;;17.50;;